Time;durP1;ratioP1;P1;durP2;ratioP2;P2;SDS_P1;SDS_P2;PMS_P1;PMS_P2;Temp;Humidity;BMP_temperature;BMP_pressure;BME280_temperature;BME280_humidity;BME280_pressure;Samples;Min_cycle;Max_cycle;Signal;HPM_P1;HPM_P2
2023/01/08 00:04:37;;;;;;;7.20;1.40;;;16.60;1.00;;;;;;4960116;28;20050;-33
2023/01/08 00:07:22;;;;;;;9.48;1.83;;;16.50;1.00;;;;;;4987814;28;20613;-33
2023/01/08 00:09:49;;;;;;;5.07;1.67;;;16.50;1.00;;;;;;5046203;28;20054;-33
2023/01/08 00:12:16;;;;;;;6.97;2.10;;;16.50;1.00;;;;;;5050990;28;20044;-33
2023/01/08 00:14:42;;;;;;;5.68;1.45;;;16.50;1.00;;;;;;5054526;28;20080;-33
2023/01/08 00:17:09;;;;;;;6.15;1.85;;;16.50;1.00;;;;;;5054508;28;20480;-33
2023/01/08 00:19:36;;;;;;;7.32;1.45;;;16.50;1.00;;;;;;5054641;28;20056;-33
2023/01/08 00:22:03;;;;;;;7.47;1.73;;;16.50;1.00;;;;;;5054586;28;20045;-33
2023/01/08 00:24:29;;;;;;;7.03;1.30;;;16.50;1.00;;;;;;5054233;28;20128;-33
2023/01/08 00:26:56;;;;;;;8.55;1.88;;;16.40;1.00;;;;;;5054570;28;20040;-33
2023/01/08 00:29:23;;;;;;;7.93;1.20;;;16.40;1.00;;;;;;5054217;28;20508;-33
2023/01/08 00:31:49;;;;;;;5.95;1.73;;;16.40;1.00;;;;;;5054400;28;20049;-33
2023/01/08 00:34:16;;;;;;;4.63;1.58;;;16.40;1.00;;;;;;5054007;28;20041;-33
2023/01/08 00:36:43;;;;;;;7.53;2.13;;;16.40;1.00;;;;;;5054576;28;20047;-33
2023/01/08 00:39:10;;;;;;;4.63;1.48;;;16.40;1.00;;;;;;5054133;28;20045;-33
2023/01/08 00:41:36;;;;;;;8.80;1.75;;;16.40;1.00;;;;;;5054245;28;20389;-33
2023/01/08 00:44:03;;;;;;;4.97;1.60;;;16.40;1.00;;;;;;5053769;28;20083;-33
2023/01/08 00:46:30;;;;;;;4.72;1.30;;;16.30;1.00;;;;;;5054152;28;20072;-33
2023/01/08 00:48:56;;;;;;;8.95;2.10;;;16.30;1.00;;;;;;5054067;28;20558;-33
2023/01/08 00:51:25;;;;;;;5.93;1.48;;;16.30;1.00;;;;;;5053941;28;20051;-33
2023/01/08 00:53:52;;;;;;;5.82;2.10;;;16.30;1.00;;;;;;5053770;28;20065;-33
2023/01/08 00:56:18;;;;;;;7.55;1.75;;;16.30;1.00;;;;;;5053922;28;20446;-33
2023/01/08 00:58:45;;;;;;;7.32;1.90;;;16.30;1.00;;;;;;5053759;28;20064;-33
2023/01/08 01:01:13;;;;;;;6.18;1.80;;;16.30;1.00;;;;;;5053783;28;20056;-33
2023/01/08 01:03:41;;;;;;;7.53;1.38;;;16.30;1.00;;;;;;5053662;28;20512;-33
2023/01/08 01:06:10;;;;;;;5.00;1.58;;;16.20;1.00;;;;;;5053758;28;20052;-33
2023/01/08 01:08:36;;;;;;;8.00;2.33;;;16.20;1.00;;;;;;5053696;28;20064;-33
2023/01/08 01:11:18;;;;;;;6.07;2.60;;;16.20;1.00;;;;;;5053504;28;20037;-33
2023/01/08 01:13:45;;;;;;;5.28;1.70;;;16.20;1.00;;;;;;5053579;28;20381;-33
2023/01/08 01:16:12;;;;;;;4.70;1.38;;;16.20;1.00;;;;;;5053508;28;20041;-33
2023/01/08 01:18:39;;;;;;;5.93;1.17;;;16.20;1.00;;;;;;5053606;28;20355;-33
2023/01/08 01:21:21;;;;;;;5.85;1.83;;;16.20;1.00;;;;;;5053402;28;20626;-33
2023/01/08 01:23:48;;;;;;;8.80;1.60;;;16.20;1.00;;;;;;5052933;28;20045;-33
2023/01/08 01:26:17;;;;;;;8.82;2.58;;;16.10;1.00;;;;;;5053024;28;20478;-33
2023/01/08 01:28:47;;;;;;;7.32;2.30;;;16.10;1.00;;;;;;5053250;28;20463;-33
2023/01/08 01:31:14;;;;;;;8.10;2.88;;;16.10;1.00;;;;;;5053239;28;20493;-34
2023/01/08 01:33:41;;;;;;;5.32;1.48;;;16.10;1.00;;;;;;5052906;28;20056;-33
2023/01/08 01:36:11;;;;;;;7.57;1.85;;;16.10;1.00;;;;;;5053068;28;20037;-33
2023/01/08 01:38:41;;;;;;;4.97;1.55;;;16.10;1.00;;;;;;5053235;28;20041;-33
2023/01/08 01:41:17;;;;;;;6.65;1.75;;;16.10;1.00;;;;;;5053113;28;20053;-33
2023/01/08 01:43:44;;;;;;;5.53;1.55;;;16.10;1.00;;;;;;5052803;28;20052;-33
2023/01/08 01:46:37;;;;;;;6.47;1.40;;;16.10;1.00;;;;;;5052985;28;20131;-33
2023/01/08 01:49:11;;;;;;;6.43;1.60;;;16.00;1.00;;;;;;5053027;28;20140;-33
2023/01/08 01:51:43;;;;;;;9.93;1.83;;;16.00;1.00;;;;;;5052693;28;20045;-33
2023/01/08 01:54:11;;;;;;;4.38;1.40;;;16.00;1.00;;;;;;5052719;28;20459;-33
2023/01/08 01:56:38;;;;;;;7.43;1.48;;;16.00;1.00;;;;;;5052783;28;20045;-33
2023/01/08 01:59:05;;;;;;;5.78;1.88;;;16.00;1.00;;;;;;5052669;28;20060;-33
2023/01/08 02:01:33;;;;;;;6.68;1.73;;;16.00;1.00;;;;;;5052619;28;20048;-33
2023/01/08 02:04:00;;;;;;;6.15;1.70;;;16.00;1.00;;;;;;5052394;28;20059;-33
2023/01/08 02:06:59;;;;;;;5.47;1.48;;;16.00;1.00;;;;;;5052598;28;20041;-33
2023/01/08 02:09:48;;;;;;;7.38;1.50;;;16.00;1.00;;;;;;5034595;28;20087;-33
2023/01/08 02:12:18;;;;;;;5.22;1.65;;;15.90;1.00;;;;;;5052374;28;20420;-33
2023/01/08 02:15:03;;;;;;;8.00;2.00;;;15.90;1.00;;;;;;5052434;28;20041;-33
2023/01/08 02:17:49;;;;;;;10.63;1.58;;;15.90;1.00;;;;;;5052373;28;20419;-33
2023/01/08 02:20:22;;;;;;;11.57;3.13;;;15.90;1.00;;;;;;5052417;28;20041;-33
2023/01/08 02:23:26;;;;;;;7.20;1.88;;;15.90;1.00;;;;;;5052136;28;20594;-33
2023/01/08 02:26:05;;;;;;;8.60;2.55;;;15.90;1.00;;;;;;4952036;29;20051;-33
2023/01/08 02:28:44;;;;;;;9.65;1.73;;;15.90;1.00;;;;;;5042020;28;20114;-37
2023/01/08 02:31:13;;;;;;;10.48;2.58;;;15.90;1.00;;;;;;5052159;28;20440;-38
2023/01/08 02:33:40;;;;;;;7.20;2.05;;;15.80;1.00;;;;;;5051862;28;20052;-40
2023/01/08 02:36:25;;;;;;;8.57;2.45;;;15.80;1.00;;;;;;5052065;28;20045;-36
2023/01/08 02:39:17;;;;;;;11.88;2.00;;;15.80;1.00;;;;;;5052070;28;20496;-38
2023/01/08 02:41:52;;;;;;;9.90;1.80;;;15.80;1.00;;;;;;5041105;28;20081;-37
2023/01/08 02:44:32;;;;;;;9.45;1.75;;;15.80;1.00;;;;;;5051763;28;20056;-39
2023/01/08 02:47:01;;;;;;;6.80;2.03;;;15.80;1.00;;;;;;5051716;28;20057;-37
2023/01/08 02:49:35;;;;;;;5.60;1.33;;;15.80;1.00;;;;;;5051899;28;20075;-36
2023/01/08 02:52:04;;;;;;;8.10;2.60;;;15.80;1.00;;;;;;5051819;28;20069;-35
2023/01/08 02:54:34;;;;;;;7.63;1.30;;;15.80;1.00;;;;;;5051558;28;20040;-38
2023/01/08 02:57:13;;;;;;;5.97;2.05;;;15.80;1.00;;;;;;5051747;28;20033;-38
2023/01/08 02:59:42;;;;;;;6.70;1.80;;;15.80;1.00;;;;;;5051782;28;20041;-34
2023/01/08 03:02:10;;;;;;;7.22;1.48;;;15.80;1.00;;;;;;5051685;28;20049;-39
2023/01/08 03:04:45;;;;;;;7.60;1.75;;;15.70;1.00;;;;;;5051556;28;20041;-35
2023/01/08 03:07:12;;;;;;;9.07;2.08;;;15.80;1.00;;;;;;5051650;28;20067;-36
2023/01/08 03:09:39;;;;;;;7.55;1.48;;;15.70;1.00;;;;;;5051807;28;20045;-36
2023/01/08 03:12:22;;;;;;;6.57;1.55;;;15.70;1.00;;;;;;5051405;28;20080;-36
2023/01/08 03:15:15;;;;;;;2.10;0.63;;;15.70;1.00;;;;;;5051679;28;20208;-38
2023/01/08 03:17:45;;;;;;;7.50;2.25;;;15.70;1.00;;;;;;5051566;28;20037;-35
2023/01/08 03:20:15;;;;;;;6.32;1.85;;;15.70;1.00;;;;;;5051501;28;20056;-39
2023/01/08 03:22:46;;;;;;;4.97;1.92;;;15.70;1.00;;;;;;5051224;28;20052;-35
2023/01/08 03:25:14;;;;;;;6.35;1.48;;;15.70;1.00;;;;;;5051436;28;20041;-36
2023/01/08 03:27:45;;;;;;;9.98;1.70;;;15.70;1.00;;;;;;5050218;28;20041;-36
2023/01/08 03:30:14;;;;;;;6.20;1.88;;;15.70;1.00;;;;;;5050950;28;20048;-37
2023/01/08 03:32:41;;;;;;;5.55;1.65;;;15.60;1.00;;;;;;5064201;28;20520;-35
2023/01/08 03:35:11;;;;;;;7.15;1.92;;;15.60;1.00;;;;;;5063466;28;20044;-38
2023/01/08 03:37:42;;;;;;;6.95;1.73;;;15.60;1.00;;;;;;5063064;28;20060;-38
2023/01/08 03:40:24;;;;;;;7.90;1.80;;;15.60;1.00;;;;;;5071411;28;20048;-36
2023/01/08 03:42:51;;;;;;;7.60;1.98;;;15.60;1.00;;;;;;5064198;28;20040;-36
2023/01/08 03:45:21;;;;;;;4.20;1.70;;;15.60;1.00;;;;;;5063127;28;20040;-37
2023/01/08 03:47:49;;;;;;;8.00;1.80;;;15.60;1.00;;;;;;5072217;28;20465;-40
2023/01/08 03:50:21;;;;;;;4.78;2.17;;;15.60;1.00;;;;;;5075145;28;20040;-39
2023/01/08 03:52:48;;;;;;;5.87;1.53;;;15.60;1.00;;;;;;5074910;28;20124;-32
2023/01/08 03:55:15;;;;;;;3.63;1.30;;;15.60;1.00;;;;;;5075096;28;20672;-35
2023/01/08 03:57:42;;;;;;;11.38;1.83;;;15.60;1.00;;;;;;5074971;28;20496;-37
2023/01/08 04:00:09;;;;;;;6.25;1.40;;;15.60;1.00;;;;;;5074961;28;20044;-34
2023/01/08 04:02:36;;;;;;;5.13;1.20;;;15.60;1.00;;;;;;5068848;28;20094;-37
2023/01/08 04:05:03;;;;;;;7.88;1.58;;;15.60;1.00;;;;;;5067776;28;20068;-39
2023/01/08 04:07:30;;;;;;;9.18;2.00;;;15.60;1.00;;;;;;5074858;28;20135;-40
2023/01/08 04:09:56;;;;;;;3.97;1.15;;;15.60;1.00;;;;;;5074844;28;20048;-36
2023/01/08 04:12:23;;;;;;;4.20;1.40;;;15.60;1.00;;;;;;5074487;28;20040;-37
2023/01/08 04:14:50;;;;;;;4.80;0.85;;;15.50;1.00;;;;;;5074619;28;20476;-37
2023/01/08 04:17:17;;;;;;;7.93;2.05;;;15.60;1.00;;;;;;5074790;28;20067;-40
2023/01/08 04:19:43;;;;;;;6.78;1.17;;;15.50;1.00;;;;;;5074789;28;20128;-35
2023/01/08 04:22:10;;;;;;;5.40;1.67;;;15.50;1.00;;;;;;5074676;28;20044;-38
2023/01/08 04:24:37;;;;;;;7.93;1.73;;;15.50;1.00;;;;;;5074311;28;20078;-37
2023/01/08 04:27:04;;;;;;;2.83;1.13;;;15.50;1.00;;;;;;5074322;28;20450;-37
2023/01/08 04:29:31;;;;;;;7.28;1.92;;;15.50;1.00;;;;;;5074417;28;20056;-37
2023/01/08 04:31:59;;;;;;;4.35;1.42;;;15.50;1.00;;;;;;5074349;28;20428;-40
2023/01/08 04:34:25;;;;;;;4.68;1.08;;;15.50;1.00;;;;;;5074155;28;20040;-36
2023/01/08 04:36:52;;;;;;;4.88;1.17;;;15.50;1.00;;;;;;5074404;28;20036;-38
2023/01/08 04:39:19;;;;;;;4.03;1.50;;;15.50;1.00;;;;;;5074203;28;20086;-38
2023/01/08 04:41:45;;;;;;;4.70;1.08;;;15.50;1.00;;;;;;5074119;28;20079;-37
2023/01/08 04:44:12;;;;;;;5.53;1.50;;;15.50;1.00;;;;;;5073965;28;20041;-36
2023/01/08 04:46:39;;;;;;;4.50;0.98;;;15.50;1.00;;;;;;5074252;28;20086;-35
2023/01/08 04:49:05;;;;;;;3.95;1.27;;;15.40;1.00;;;;;;5074064;28;20094;-38
2023/01/08 04:51:32;;;;;;;4.50;1.20;;;15.40;1.00;;;;;;5074084;28;20052;-36
2023/01/08 04:53:59;;;;;;;5.38;1.35;;;15.40;1.00;;;;;;5073623;28;20503;-35
2023/01/08 04:56:26;;;;;;;4.57;1.20;;;15.40;1.00;;;;;;5074084;28;20116;-40
2023/01/08 04:58:52;;;;;;;6.07;1.63;;;15.40;1.00;;;;;;5073267;28;20065;-36
2023/01/08 05:01:22;;;;;;;1.92;1.02;;;15.40;1.00;;;;;;5073550;28;20442;-39
2023/01/08 05:04:01;;;;;;;4.43;1.20;;;15.40;1.00;;;;;;5073664;28;20048;-39
2023/01/08 05:06:29;;;;;;;4.03;1.45;;;15.40;1.00;;;;;;5073670;28;20561;-37
2023/01/08 05:08:57;;;;;;;6.20;1.08;;;15.40;1.00;;;;;;5073693;28;20048;-38
2023/01/08 05:11:24;;;;;;;4.95;1.65;;;15.40;1.00;;;;;;5073679;28;20036;-36
2023/01/08 05:13:52;;;;;;;5.70;1.20;;;15.40;1.00;;;;;;5073424;28;20064;-36
2023/01/08 05:16:19;;;;;;;4.90;1.05;;;15.40;1.00;;;;;;5073570;28;20125;-37
2023/01/08 05:18:45;;;;;;;5.63;1.10;;;15.40;1.00;;;;;;5073641;28;20036;-38
2023/01/08 05:21:13;;;;;;;2.03;1.00;;;15.40;1.00;;;;;;5073389;28;20127;-35
2023/01/08 05:23:43;;;;;;;3.83;1.23;;;15.40;1.00;;;;;;5064949;28;20451;-36
2023/01/08 05:26:09;;;;;;;4.40;1.20;;;15.40;1.00;;;;;;5053341;28;20045;-36
2023/01/08 05:28:36;;;;;;;2.83;1.45;;;15.30;1.00;;;;;;5053208;28;20136;-37
2023/01/08 05:31:03;;;;;;;2.97;1.10;;;15.30;1.00;;;;;;5053311;28;20114;-38
2023/01/08 05:33:30;;;;;;;5.47;0.93;;;15.30;1.00;;;;;;5053055;28;20533;-35
2023/01/08 05:35:57;;;;;;;2.88;1.10;;;15.30;1.00;;;;;;5053082;28;20052;-38
2023/01/08 05:38:24;;;;;;;3.38;1.58;;;15.30;1.00;;;;;;5053160;28;20103;-41
2023/01/08 05:40:51;;;;;;;5.72;2.08;;;15.30;1.00;;;;;;5053195;28;20091;-35
2023/01/08 05:43:18;;;;;;;6.32;1.45;;;15.30;1.00;;;;;;5052829;28;20558;-34
2023/01/08 05:45:45;;;;;;;3.30;1.13;;;15.30;1.00;;;;;;5053107;28;20099;-40
2023/01/08 05:48:12;;;;;;;5.90;0.98;;;15.30;1.00;;;;;;5068306;28;20063;-37
2023/01/08 05:50:38;;;;;;;4.38;1.02;;;15.30;1.00;;;;;;5053218;28;20435;-34
2023/01/08 05:53:06;;;;;;;4.63;1.55;;;15.30;1.00;;;;;;5052482;28;20110;-38
2023/01/08 05:55:34;;;;;;;4.60;1.00;;;15.20;1.00;;;;;;5052931;28;20041;-37
2023/01/08 05:58:02;;;;;;;6.45;1.15;;;15.20;1.00;;;;;;5052783;28;20041;-35
2023/01/08 06:00:30;;;;;;;5.55;1.67;;;15.30;1.00;;;;;;5052762;28;20128;-35
2023/01/08 06:02:57;;;;;;;5.97;1.08;;;15.20;1.00;;;;;;5058724;28;20043;-38
2023/01/08 06:05:24;;;;;;;11.45;1.77;;;15.20;1.00;;;;;;5060556;28;20075;-34
2023/01/08 06:07:51;;;;;;;7.93;2.17;;;15.20;1.00;;;;;;5064141;28;20040;-36
2023/01/08 06:10:18;;;;;;;7.72;1.42;;;15.20;1.00;;;;;;5072266;28;20071;-37
2023/01/08 06:12:44;;;;;;;11.75;2.13;;;15.20;1.00;;;;;;5068859;28;20075;-39
2023/01/08 06:15:11;;;;;;;14.52;1.63;;;15.20;1.00;;;;;;5060550;28;20442;-38
2023/01/08 06:17:38;;;;;;;11.52;2.30;;;15.20;1.00;;;;;;5070039;28;20120;-36
2023/01/08 06:20:06;;;;;;;5.13;1.30;;;15.20;1.00;;;;;;5054470;28;20484;-38
2023/01/08 06:22:34;;;;;;;8.23;1.45;;;15.20;1.00;;;;;;5072179;28;20040;-36
2023/01/08 06:25:01;;;;;;;13.05;2.15;;;15.20;1.00;;;;;;5072170;28;20044;-39
2023/01/08 06:27:28;;;;;;;10.68;1.48;;;15.20;1.00;;;;;;5071995;28;20051;-37
2023/01/08 06:29:55;;;;;;;8.93;1.70;;;15.20;1.00;;;;;;5072226;28;20101;-37
2023/01/08 06:32:22;;;;;;;8.98;2.00;;;15.10;1.00;;;;;;5066399;28;20119;-37
2023/01/08 06:34:49;;;;;;;9.43;1.75;;;15.10;1.00;;;;;;5056369;28;20116;-35
2023/01/08 06:37:15;;;;;;;11.00;1.58;;;15.10;1.00;;;;;;5065660;28;20037;-36
2023/01/08 06:39:42;;;;;;;7.30;1.20;;;15.10;1.00;;;;;;5053702;28;20068;-36
2023/01/08 06:42:09;;;;;;;9.50;1.98;;;15.10;1.00;;;;;;5052370;28;20060;-37
2023/01/08 06:44:35;;;;;;;15.93;3.22;;;15.10;1.00;;;;;;5051011;28;20172;-38
2023/01/08 06:47:02;;;;;;;8.57;2.30;;;15.10;1.00;;;;;;5048914;28;20439;-38
2023/01/08 06:49:29;;;;;;;16.73;3.45;;;15.20;1.00;;;;;;5047113;28;20068;-38
2023/01/08 06:51:56;;;;;;;12.88;2.38;;;15.20;1.00;;;;;;5050953;28;20571;-37
2023/01/08 06:54:23;;;;;;;18.52;2.63;;;15.10;1.00;;;;;;5050966;28;20083;-34
2023/01/08 06:56:49;;;;;;;12.20;2.88;;;15.20;1.00;;;;;;5054807;28;20061;-37
2023/01/08 06:59:20;;;;;;;13.55;2.30;;;15.10;1.00;;;;;;5034126;28;20124;-36
2023/01/08 07:01:47;;;;;;;10.05;1.95;;;15.10;1.00;;;;;;5051776;28;20040;-38
2023/01/08 07:04:14;;;;;;;14.63;1.88;;;15.10;1.00;;;;;;5051588;28;20053;-39
2023/01/08 07:06:41;;;;;;;13.77;2.25;;;15.10;1.00;;;;;;5051663;28;20049;-40
2023/01/08 07:09:11;;;;;;;15.85;2.72;;;15.10;1.00;;;;;;5051773;28;20041;-39
2023/01/08 07:11:38;;;;;;;12.55;2.58;;;15.10;1.00;;;;;;5051638;28;20045;-40
2023/01/08 07:14:05;;;;;;;18.17;2.90;;;15.10;1.00;;;;;;5051279;28;20079;-37
2023/01/08 07:16:32;;;;;;;21.73;2.70;;;15.10;1.00;;;;;;5051685;28;20041;-37
2023/01/08 07:18:59;;;;;;;13.45;2.63;;;15.10;1.00;;;;;;5051587;28;20112;-39
2023/01/08 07:21:26;;;;;;;13.70;1.90;;;15.10;1.00;;;;;;5051597;28;20116;-39
2023/01/08 07:23:52;;;;;;;8.60;1.85;;;15.10;1.00;;;;;;5054198;28;20411;-38
2023/01/08 07:26:19;;;;;;;11.65;2.25;;;15.10;1.00;;;;;;5055598;28;20476;-39
2023/01/08 07:28:46;;;;;;;11.57;2.25;;;15.10;1.00;;;;;;5037587;28;20566;-38
2023/01/08 07:31:13;;;;;;;9.20;1.70;;;15.10;1.00;;;;;;5051301;28;20046;-35
2023/01/08 07:33:39;;;;;;;11.82;2.10;;;15.10;1.00;;;;;;5063588;28;20041;-38
2023/01/08 07:36:07;;;;;;;8.07;1.88;;;15.10;1.00;;;;;;5067109;28;20431;-39
2023/01/08 07:38:33;;;;;;;9.13;2.17;;;15.10;1.00;;;;;;5075290;28;20607;-40
2023/01/08 07:41:00;;;;;;;14.18;1.85;;;15.10;1.00;;;;;;5075547;28;20458;-39
2023/01/08 07:43:28;;;;;;;9.25;1.92;;;15.10;1.00;;;;;;5075205;28;20384;-35
2023/01/08 07:45:56;;;;;;;5.80;1.95;;;15.10;1.00;;;;;;5075152;28;20484;-40
2023/01/08 07:48:23;;;;;;;7.32;1.58;;;15.10;1.00;;;;;;5072873;28;20488;-36
2023/01/08 07:50:50;;;;;;;9.27;1.95;;;15.10;1.00;;;;;;5063309;28;20072;-39
2023/01/08 07:53:18;;;;;;;6.95;1.33;;;15.10;1.00;;;;;;5047748;28;20059;-38
2023/01/08 07:55:49;;;;;;;9.85;1.98;;;15.10;1.00;;;;;;5045860;28;20516;-38
2023/01/08 07:58:15;;;;;;;5.75;1.70;;;15.10;1.00;;;;;;5039926;28;20117;-40
2023/01/08 08:00:42;;;;;;;9.13;2.03;;;15.10;1.00;;;;;;5044124;28;20048;-37
2023/01/08 08:03:12;;;;;;;8.73;1.75;;;15.00;1.00;;;;;;5042879;28;20041;-37
2023/01/08 08:05:39;;;;;;;9.55;1.52;;;15.00;1.00;;;;;;5043549;28;20500;-36
2023/01/08 08:08:10;;;;;;;11.55;3.47;;;15.10;1.00;;;;;;5045034;28;20045;-34
2023/01/08 08:10:38;;;;;;;9.80;1.55;;;15.00;1.00;;;;;;5024728;28;20077;-37
2023/01/08 08:13:05;;;;;;;8.77;2.38;;;15.00;1.00;;;;;;5024554;28;20034;-40
2023/01/08 08:15:34;;;;;;;7.90;1.83;;;15.00;1.00;;;;;;5043180;28;20057;-37
2023/01/08 08:18:14;;;;;;;11.88;1.80;;;15.00;1.00;;;;;;5043071;28;20037;-41
2023/01/08 08:21:06;;;;;;;10.05;2.15;;;15.00;1.00;;;;;;5043200;28;20443;-35
2023/01/08 08:23:37;;;;;;;9.23;2.28;;;15.00;1.00;;;;;;5042136;28;20049;-38
2023/01/08 08:26:07;;;;;;;7.43;1.88;;;15.00;1.00;;;;;;5042510;28;20084;-36
2023/01/08 08:28:37;;;;;;;8.27;2.30;;;15.00;1.00;;;;;;5044051;28;20518;-39
2023/01/08 08:31:04;;;;;;;7.50;1.58;;;15.00;1.00;;;;;;5043275;28;20108;-37
2023/01/08 08:33:31;;;;;;;9.27;1.67;;;15.00;1.00;;;;;;5042351;28;20091;-35
2023/01/08 08:35:58;;;;;;;17.10;3.17;;;15.10;1.00;;;;;;5025563;28;20492;-37
2023/01/08 08:38:25;;;;;;;6.70;1.77;;;15.10;1.00;;;;;;5043371;28;20064;-38
2023/01/08 08:40:52;;;;;;;9.48;1.60;;;15.20;1.00;;;;;;5043136;28;20052;-38
2023/01/08 08:43:19;;;;;;;4.57;0.82;;;15.30;1.00;;;;;;5042069;28;20037;-35
2023/01/08 08:45:45;;;;;;;9.20;1.48;;;15.40;1.00;;;;;;5043338;28;20166;-40
2023/01/08 08:48:12;;;;;;;4.63;1.50;;;15.50;1.00;;;;;;5042397;28;20389;-38
2023/01/08 08:50:39;;;;;;;5.93;2.13;;;15.60;1.00;;;;;;5042950;28;20052;-40
2023/01/08 08:53:06;;;;;;;5.10;1.35;;;15.70;1.00;;;;;;5042392;28;20036;-42
2023/01/08 08:55:33;;;;;;;3.25;1.27;;;15.90;1.00;;;;;;5042779;28;20456;-35
2023/01/08 08:58:11;;;;;;;8.38;1.80;;;16.00;1.00;;;;;;5043081;28;20064;-39
2023/01/08 09:00:39;;;;;;;8.50;1.73;;;16.10;1.00;;;;;;5049622;28;20044;-38
2023/01/08 09:03:08;;;;;;;3.13;1.25;;;16.20;1.00;;;;;;5055841;28;20039;-42
2023/01/08 09:05:36;;;;;;;7.45;1.98;;;16.40;1.00;;;;;;5050477;28;20040;-38
2023/01/08 09:08:03;;;;;;;7.35;1.52;;;16.40;1.00;;;;;;5059114;28;20661;-38
2023/01/08 09:10:29;;;;;;;10.85;1.73;;;16.60;1.00;;;;;;5055551;28;20049;-40
2023/01/08 09:12:56;;;;;;;6.82;1.80;;;16.60;1.00;;;;;;5055466;28;20519;-38
2023/01/08 09:15:23;;;;;;;8.30;1.70;;;16.70;1.00;;;;;;5049835;28;20045;-38
2023/01/08 09:17:56;;;;;;;7.80;1.23;;;16.80;1.00;;;;;;5048001;28;20091;-38
2023/01/08 09:20:25;;;;;;;3.70;1.10;;;16.80;1.00;;;;;;5051550;28;20033;-35
2023/01/08 09:22:51;;;;;;;6.32;1.30;;;16.90;1.00;;;;;;5050396;28;20044;-39
2023/01/08 09:25:18;;;;;;;9.02;1.70;;;16.90;1.00;;;;;;5051541;28;20052;-41
2023/01/08 09:27:45;;;;;;;4.18;1.17;;;17.00;1.00;;;;;;5051192;28;20071;-41
2023/01/08 09:30:12;;;;;;;10.43;1.90;;;17.00;1.00;;;;;;5050937;28;20099;-37
2023/01/08 09:32:39;;;;;;;8.13;1.30;;;17.10;1.00;;;;;;5041561;28;20045;-40
2023/01/08 09:35:06;;;;;;;6.97;1.10;;;17.10;1.00;;;;;;5041894;28;20120;-38
2023/01/08 09:37:34;;;;;;;8.93;2.42;;;17.10;1.00;;;;;;5042258;28;20136;-38
2023/01/08 09:40:00;;;;;;;6.53;2.33;;;17.10;1.00;;;;;;5041513;28;20069;-38
2023/01/08 09:42:29;;;;;;;10.98;2.20;;;17.20;1.00;;;;;;5040714;28;20037;-37
2023/01/08 09:44:58;;;;;;;8.00;1.83;;;17.20;1.00;;;;;;5041584;28;20041;-38
2023/01/08 09:47:29;;;;;;;6.88;2.75;;;17.20;1.00;;;;;;5041189;28;20133;-36
2023/01/08 09:50:00;;;;;;;8.73;2.72;;;17.20;1.00;;;;;;5045503;28;20111;-38
2023/01/08 09:52:28;;;;;;;8.43;2.30;;;17.20;1.00;;;;;;5041977;28;20080;-38
2023/01/08 09:54:55;;;;;;;5.70;1.85;;;17.30;1.00;;;;;;5042754;28;20507;-36
2023/01/08 09:57:22;;;;;;;4.38;1.67;;;17.30;1.00;;;;;;5025157;28;20041;-36
2023/01/08 09:59:49;;;;;;;7.25;1.92;;;17.20;1.00;;;;;;5042856;28;20068;-37
2023/01/08 10:02:21;;;;;;;8.15;2.20;;;17.20;1.00;;;;;;5043345;28;20129;-39
2023/01/08 10:05:12;;;;;;;6.43;2.08;;;17.20;1.00;;;;;;5043681;28;20477;-35
2023/01/08 10:07:39;;;;;;;5.47;1.98;;;17.20;1.00;;;;;;5043832;28;20390;-37
2023/01/08 10:10:20;;;;;;;8.95;2.55;;;17.20;1.00;;;;;;5043539;28;20092;-36
2023/01/08 10:12:49;;;;;;;8.38;2.10;;;17.20;1.00;;;;;;5042085;28;20408;-36
2023/01/08 10:15:18;;;;;;;7.15;1.50;;;17.20;1.00;;;;;;5042624;28;20386;-38
2023/01/08 10:17:58;;;;;;;5.75;2.25;;;17.10;1.00;;;;;;5041714;28;20046;-37
2023/01/08 10:20:25;;;;;;;5.82;1.77;;;17.10;1.00;;;;;;5042515;28;20113;-35
2023/01/08 10:22:53;;;;;;;10.05;1.83;;;17.10;1.00;;;;;;5042407;28;20040;-34
2023/01/08 10:25:26;;;;;;;6.10;1.60;;;17.10;1.00;;;;;;5040931;28;20065;-38
2023/01/08 10:28:01;;;;;;;7.07;1.42;;;17.10;1.00;;;;;;5042591;28;20484;-34
2023/01/08 10:30:34;;;;;;;6.60;1.25;;;17.10;1.00;;;;;;5042317;28;20060;-36
2023/01/08 10:33:05;;;;;;;4.28;1.20;;;17.10;1.00;;;;;;5043936;28;20540;-41
2023/01/08 10:35:38;;;;;;;6.05;1.17;;;17.10;1.00;;;;;;5042489;28;20068;-38
2023/01/08 10:38:05;;;;;;;;;;;17.10;1.00;;;;;;5045729;28;20079;-37
2023/01/08 10:40:31;;;;;;;5.53;1.25;;;17.10;1.00;;;;;;5042131;28;20388;-38
2023/01/08 10:43:07;;;;;;;4.65;1.38;;;17.00;1.00;;;;;;5042843;28;20496;-38
2023/01/08 10:45:34;;;;;;;4.60;1.50;;;17.00;1.00;;;;;;5041855;28;20049;-39
2023/01/08 10:48:05;;;;;;;6.75;1.75;;;17.00;1.00;;;;;;5041573;28;20119;-37
2023/01/08 10:50:33;;;;;;;5.10;1.55;;;17.00;1.00;;;;;;5044793;28;20050;-36
2023/01/08 10:53:19;;;;;;;5.22;1.05;;;17.00;1.00;;;;;;5043253;28;20045;-37
2023/01/08 10:56:00;;;;;;;4.78;1.15;;;17.00;1.00;;;;;;5041020;28;20527;-39
2023/01/08 10:58:28;;;;;;;5.90;1.10;;;17.00;1.00;;;;;;5042027;28;20124;-36
2023/01/08 11:01:30;;;;;;;15.13;1.77;;;17.00;1.00;;;;;;5041836;28;20037;-36
2023/01/08 11:04:01;;;;;;;19.08;2.55;;;17.00;1.00;;;;;;5032876;28;20480;-37
2023/01/08 11:06:31;;;;;;;10.77;3.03;;;16.90;1.00;;;;;;5042051;28;20033;-39
2023/01/08 11:09:05;;;;;;;10.65;1.38;;;16.90;1.00;;;;;;5041871;28;20029;-34
2023/01/08 11:11:34;;;;;;;6.43;1.45;;;16.90;1.00;;;;;;5043024;28;20053;-37
2023/01/08 11:14:12;;;;;;;6.82;1.67;;;16.80;1.00;;;;;;5043012;28;20041;-37
2023/01/08 11:16:41;;;;;;;8.40;2.10;;;16.90;1.00;;;;;;5042119;28;20037;-37
2023/01/08 11:19:21;;;;;;;11.95;2.50;;;16.80;1.00;;;;;;5040649;28;20051;-38
2023/01/08 11:22:18;;;;;;;5.88;1.10;;;16.80;1.00;;;;;;5042674;28;20383;-37
2023/01/08 11:24:46;;;;;;;6.57;1.70;;;16.80;1.00;;;;;;5041182;28;20053;-34
2023/01/08 11:27:35;;;;;;;9.43;2.90;;;16.80;1.00;;;;;;5040674;28;20048;-34
2023/01/08 11:30:06;;;;;;;6.72;1.63;;;16.80;1.00;;;;;;5041357;28;20051;-35
2023/01/08 11:32:39;;;;;;;10.20;2.05;;;16.80;1.00;;;;;;5041466;28;20596;-36
2023/01/08 11:35:27;;;;;;;5.82;1.55;;;16.80;1.00;;;;;;5041509;28;20099;-37
2023/01/08 11:38:01;;;;;;;5.57;1.95;;;16.70;1.00;;;;;;5042191;28;20112;-40
2023/01/08 11:40:51;;;;;;;6.22;1.77;;;16.70;1.00;;;;;;5041651;28;20045;-35
2023/01/08 11:43:40;;;;;;;4.82;1.65;;;16.70;1.00;;;;;;5041705;28;20390;-35
2023/01/08 11:46:13;;;;;;;7.32;1.60;;;16.70;1.00;;;;;;5042829;28;20029;-34
2023/01/08 11:49:01;;;;;;;5.57;1.15;;;16.70;1.00;;;;;;5041336;28;20033;-37
2023/01/08 11:51:46;;;;;;;7.05;1.58;;;16.70;1.00;;;;;;5040613;28;20033;-39
2023/01/08 11:54:16;;;;;;;9.93;1.92;;;16.70;1.00;;;;;;5040916;28;20488;-38
2023/01/08 11:57:11;;;;;;;7.15;1.60;;;16.60;1.00;;;;;;5038438;28;20058;-38
2023/01/08 12:00:02;;;;;;;3.30;1.48;;;16.60;1.00;;;;;;5049851;28;20033;-36
2023/01/08 12:02:38;;;;;;;4.25;1.20;;;16.60;1.00;;;;;;5046282;28;20037;-38
2023/01/08 12:05:20;;;;;;;8.88;1.70;;;16.60;1.00;;;;;;5062747;28;20044;-38
2023/01/08 12:08:06;;;;;;;7.82;1.55;;;16.50;1.00;;;;;;5067367;28;20523;-40
2023/01/08 12:10:44;;;;;;;4.10;1.63;;;16.60;1.00;;;;;;5062237;28;20079;-40
2023/01/08 12:13:18;;;;;;;5.22;1.15;;;16.50;1.00;;;;;;5065703;28;20082;-38
2023/01/08 12:16:17;;;;;;;4.78;1.60;;;16.50;1.00;;;;;;5045883;28;20130;-38
2023/01/08 12:18:56;;;;;;;5.88;1.38;;;16.50;1.00;;;;;;5062245;28;20530;-38
2023/01/08 12:22:00;;;;;;;6.32;1.42;;;16.50;1.00;;;;;;5057297;28;20120;-33
2023/01/08 12:24:27;;;;;;;;;;;16.50;1.00;;;;;;5053757;28;20041;-40
2023/01/08 12:26:56;;;;;;;5.03;1.25;;;16.50;1.00;;;;;;5055046;28;19932;-40
2023/01/08 12:29:35;;;;;;;6.05;1.15;;;16.40;1.00;;;;;;5054165;28;20075;-38
2023/01/08 12:32:20;;;;;;;5.88;1.75;;;16.40;1.00;;;;;;5056409;28;20060;-36
2023/01/08 12:35:06;;;;;;;8.98;1.10;;;16.40;1.00;;;;;;5065764;28;20043;-36
2023/01/08 12:37:42;;;;;;;6.72;1.20;;;16.40;1.00;;;;;;5071132;28;20074;-38
2023/01/08 12:40:33;;;;;;;5.70;1.00;;;16.40;1.00;;;;;;5067730;28;20041;-38
2023/01/08 12:43:05;;;;;;;9.40;1.90;;;16.40;1.00;;;;;;5073887;28;20037;-37
2023/01/08 12:45:39;;;;;;;8.88;1.85;;;16.40;1.00;;;;;;5074106;28;20147;-39
2023/01/08 12:48:10;;;;;;;6.13;1.38;;;16.40;1.00;;;;;;5073966;28;20090;-38
2023/01/08 12:51:03;;;;;;;12.15;2.28;;;16.30;1.00;;;;;;5074024;28;20063;-37
2023/01/08 12:53:41;;;;;;;4.25;1.48;;;16.30;1.00;;;;;;5073719;28;20110;-35
2023/01/08 12:56:14;;;;;;;7.50;2.03;;;16.30;1.00;;;;;;5073929;28;20101;-36
2023/01/08 12:58:50;;;;;;;4.40;1.05;;;16.30;1.00;;;;;;5073923;28;20112;-38
2023/01/08 13:01:36;;;;;;;6.38;1.70;;;16.30;1.00;;;;;;5073907;28;20074;-36
2023/01/08 13:04:05;;;;;;;5.72;1.13;;;16.20;1.00;;;;;;5073535;28;20044;-39
2023/01/08 13:06:32;;;;;;;5.65;1.48;;;16.30;1.00;;;;;;5073731;28;20048;-38
2023/01/08 13:08:59;;;;;;;10.45;1.73;;;16.30;1.00;;;;;;5054912;28;20044;-35
2023/01/08 13:11:30;;;;;;;7.43;1.42;;;16.20;1.00;;;;;;5072792;28;20124;-40
2023/01/08 13:14:10;;;;;;;7.90;1.48;;;16.20;1.00;;;;;;5058663;28;20099;-40
2023/01/08 13:16:39;;;;;;;3.53;1.15;;;16.20;1.00;;;;;;5062907;28;20045;-38
2023/01/08 13:19:21;;;;;;;5.47;1.55;;;16.20;1.00;;;;;;5033983;28;20040;-37